Time;durP1;ratioP1;P1;durP2;ratioP2;P2;SDS_P1;SDS_P2;PMS_P1;PMS_P2;Temp;Humidity;BMP_temperature;BMP_pressure;BME280_temperature;BME280_humidity;BME280_pressure;Samples;Min_cycle;Max_cycle;Signal;HPM_P1;HPM_P2
2021/12/31 00:00:29;;;;;;;33.38;19.88;;;3.90;99.90;;;;;;5050620;28;20609;-76
2021/12/31 00:02:54;;;;;;;34.00;19.67;;;3.90;99.90;;;;;;5033045;28;20166;-75
2021/12/31 00:05:20;;;;;;;30.20;17.85;;;3.90;99.90;;;;;;5050815;28;20188;-75
2021/12/31 00:07:46;;;;;;;31.52;18.77;;;3.90;99.90;;;;;;5050837;28;20175;-76
2021/12/31 00:10:13;;;;;;;30.27;18.70;;;3.80;99.90;;;;;;5037455;28;20220;-76
2021/12/31 00:12:43;;;;;;;38.55;19.60;;;3.70;99.90;;;;;;5013256;28;20189;-76
2021/12/31 00:15:11;;;;;;;33.42;19.63;;;3.60;99.90;;;;;;5030328;28;20168;-76
2021/12/31 00:17:38;;;;;;;25.75;17.33;;;3.70;99.90;;;;;;5029382;28;20202;-75
2021/12/31 00:20:12;;;;;;;31.17;18.33;;;3.70;99.90;;;;;;5030551;28;20205;-76
2021/12/31 00:22:57;;;;;;;37.17;20.52;;;3.60;99.90;;;;;;5030681;28;20209;-75
2021/12/31 00:25:24;;;;;;;38.08;19.38;;;3.50;99.90;;;;;;5030760;28;20171;-75
2021/12/31 00:27:50;;;;;;;29.20;18.70;;;3.40;99.90;;;;;;5030640;28;20212;-75
2021/12/31 00:30:17;;;;;;;31.98;18.83;;;3.40;99.90;;;;;;5030639;28;20189;-76
2021/12/31 00:32:43;;;;;;;29.92;17.83;;;3.40;99.90;;;;;;5030473;28;20188;-75
2021/12/31 00:35:10;;;;;;;34.47;19.88;;;3.20;99.90;;;;;;5030572;28;20154;-75
2021/12/31 00:37:38;;;;;;;28.27;17.85;;;3.20;99.90;;;;;;5029371;28;20193;-75
2021/12/31 00:40:07;;;;;;;31.63;18.83;;;3.10;99.90;;;;;;5030305;28;20182;-76
2021/12/31 00:42:33;;;;;;;27.60;17.80;;;3.10;99.90;;;;;;5030432;28;20181;-75
2021/12/31 00:44:59;;;;;;;24.45;17.55;;;3.10;99.90;;;;;;5030342;28;20154;-75
2021/12/31 00:47:25;;;;;;;33.42;19.83;;;3.00;99.90;;;;;;5009220;28;20209;-75
2021/12/31 00:49:51;;;;;;;26.15;17.33;;;3.00;99.90;;;;;;5010430;28;20671;-75
2021/12/31 00:52:17;;;;;;;27.95;17.08;;;3.00;99.90;;;;;;4993018;28;20178;-75
2021/12/31 00:54:43;;;;;;;30.73;19.08;;;2.90;99.90;;;;;;5010452;28;20182;-76
2021/12/31 00:57:10;;;;;;;35.47;19.33;;;2.90;99.90;;;;;;5020893;28;20209;-75
2021/12/31 00:59:43;;;;;;;27.02;17.80;;;2.80;99.90;;;;;;5106912;27;20549;-76
2021/12/31 01:02:12;;;;;;;32.85;18.88;;;2.80;99.90;;;;;;5105515;28;20179;-77
2021/12/31 01:04:39;;;;;;;29.55;18.10;;;2.80;99.90;;;;;;5106670;28;20155;-77
2021/12/31 01:07:05;;;;;;;31.67;18.60;;;2.70;99.90;;;;;;5106620;28;20156;-77
2021/12/31 01:09:32;;;;;;;32.20;18.65;;;2.70;99.90;;;;;;5105256;28;20614;-75
2021/12/31 01:11:59;;;;;;;29.33;16.98;;;2.70;99.90;;;;;;5106581;28;20156;-76
2021/12/31 01:16:57;;;;;;;30.05;17.02;;;2.80;99.90;;;;;;5102243;28;20167;-77
2021/12/31 01:21:54;;;;;;;30.52;18.58;;;2.80;99.90;;;;;;5105575;28;20219;-76
2021/12/31 01:24:23;;;;;;;26.05;17.75;;;2.70;99.90;;;;;;5104959;28;20167;-76
2021/12/31 01:26:49;;;;;;;30.08;18.65;;;2.60;99.90;;;;;;5104947;28;20167;-77
2021/12/31 01:29:15;;;;;;;33.55;18.38;;;2.60;99.90;;;;;;5104841;28;20205;-75
2021/12/31 01:31:41;;;;;;;28.48;16.85;;;2.60;99.90;;;;;;5104924;28;20228;-76
2021/12/31 01:34:07;;;;;;;29.23;17.70;;;2.50;99.90;;;;;;5104993;28;20195;-76
2021/12/31 01:36:33;;;;;;;30.50;17.88;;;2.50;99.90;;;;;;5105782;28;20189;-77
2021/12/31 01:38:59;;;;;;;33.25;17.52;;;2.50;99.90;;;;;;5104637;28;20707;-77
2021/12/31 01:41:25;;;;;;;27.73;19.02;;;2.50;99.90;;;;;;5106068;28;20156;-77
2021/12/31 01:43:52;;;;;;;28.13;18.08;;;2.30;99.90;;;;;;5105978;28;20234;-76
2021/12/31 01:46:19;;;;;;;33.97;18.17;;;2.30;99.90;;;;;;5105759;28;20220;-77
2021/12/31 01:49:00;;;;;;;31.23;17.92;;;2.40;99.90;;;;;;5106000;28;20730;-76
2021/12/31 01:51:28;;;;;;;27.63;17.45;;;2.30;99.90;;;;;;5105746;28;20232;-76
2021/12/31 01:53:54;;;;;;;25.17;17.50;;;2.40;99.90;;;;;;5104418;28;20175;-77
2021/12/31 01:56:22;;;;;;;29.55;16.77;;;2.40;99.90;;;;;;5104396;28;20194;-77
2021/12/31 01:58:53;;;;;;;30.15;17.02;;;2.40;99.90;;;;;;5105303;28;20290;-76
2021/12/31 02:01:20;;;;;;;27.52;17.25;;;2.40;99.90;;;;;;5105616;28;20156;-77
2021/12/31 02:03:46;;;;;;;32.75;19.30;;;2.40;99.90;;;;;;5105497;28;20167;-76
2021/12/31 02:06:12;;;;;;;29.23;17.95;;;2.50;99.90;;;;;;5104283;28;20171;-76
2021/12/31 02:08:38;;;;;;;26.02;17.00;;;2.60;99.90;;;;;;5105482;28;20194;-76
2021/12/31 02:11:04;;;;;;;27.70;17.80;;;2.60;99.90;;;;;;5091969;28;20156;-76
2021/12/31 02:13:30;;;;;;;29.17;17.88;;;2.50;99.90;;;;;;5090111;28;20183;-75
2021/12/31 02:15:55;;;;;;;29.33;17.42;;;2.40;99.90;;;;;;5091868;28;20171;-75
2021/12/31 02:18:22;;;;;;;28.02;17.38;;;2.40;99.90;;;;;;5073599;28;20677;-76
2021/12/31 02:20:48;;;;;;;24.17;16.45;;;2.40;99.90;;;;;;5082984;28;20169;-76
2021/12/31 02:23:24;;;;;;;26.75;16.75;;;2.40;99.90;;;;;;5071714;28;20149;-76
2021/12/31 02:25:51;;;;;;;31.17;18.25;;;2.30;99.90;;;;;;5086963;28;20561;-76
2021/12/31 02:28:18;;;;;;;29.77;17.17;;;2.30;99.90;;;;;;5071442;28;20189;-76
2021/12/31 02:30:45;;;;;;;24.92;16.80;;;2.30;99.90;;;;;;5070201;28;20168;-75
2021/12/31 02:33:11;;;;;;;26.38;17.48;;;2.30;99.90;;;;;;5071492;28;20169;-75
2021/12/31 02:35:38;;;;;;;25.98;16.45;;;2.20;99.90;;;;;;5070166;28;20173;-75
2021/12/31 02:38:07;;;;;;;30.58;16.77;;;2.20;99.90;;;;;;5086709;28;20204;-76
2021/12/31 02:40:33;;;;;;;35.40;19.27;;;2.20;99.90;;;;;;5069941;28;20176;-77
2021/12/31 02:43:00;;;;;;;35.25;19.85;;;2.10;99.90;;;;;;5069899;28;20199;-76
2021/12/31 02:45:33;;;;;;;29.73;16.92;;;2.20;99.90;;;;;;5071180;28;20153;-76
2021/12/31 02:48:02;;;;;;;32.53;19.08;;;2.20;99.90;;;;;;5071139;28;20193;-76
2021/12/31 02:50:35;;;;;;;33.22;18.27;;;2.10;99.90;;;;;;5069805;28;20598;-76
2021/12/31 02:53:06;;;;;;;33.45;17.52;;;2.10;99.90;;;;;;5071014;28;20163;-76
2021/12/31 02:55:34;;;;;;;30.50;18.27;;;2.00;99.90;;;;;;5071018;28;20165;-75
2021/12/31 02:58:03;;;;;;;33.55;18.92;;;2.00;99.90;;;;;;5069201;28;20252;-75
2021/12/31 03:00:30;;;;;;;31.00;18.08;;;2.10;99.90;;;;;;5068896;28;20192;-77
2021/12/31 03:02:59;;;;;;;28.98;17.48;;;2.10;99.90;;;;;;5070735;28;20264;-77
2021/12/31 03:05:29;;;;;;;34.15;18.38;;;2.10;99.90;;;;;;5069637;28;20194;-77
2021/12/31 03:07:57;;;;;;;25.65;17.58;;;2.10;99.90;;;;;;5070815;28;20160;-77
2021/12/31 03:10:26;;;;;;;29.35;17.05;;;2.10;99.90;;;;;;5085428;28;20218;-77
2021/12/31 03:12:53;;;;;;;23.45;16.45;;;2.00;99.90;;;;;;5090664;28;20187;-77
2021/12/31 03:15:19;;;;;;;27.05;16.48;;;1.90;99.90;;;;;;5090782;28;20157;-76
2021/12/31 03:17:45;;;;;;;25.10;16.80;;;1.90;99.90;;;;;;5077512;28;20291;-76
2021/12/31 03:20:16;;;;;;;23.85;16.33;;;2.00;99.90;;;;;;5081580;28;20175;-76
2021/12/31 03:22:43;;;;;;;28.10;15.95;;;1.90;99.90;;;;;;5088456;28;20167;-76
2021/12/31 03:25:11;;;;;;;29.65;16.77;;;1.90;99.90;;;;;;5090506;28;20153;-77
2021/12/31 03:27:37;;;;;;;28.05;16.23;;;2.00;99.90;;;;;;5090487;28;20613;-76
2021/12/31 03:30:05;;;;;;;23.23;15.10;;;2.30;99.90;;;;;;5089238;28;20194;-76
2021/12/31 03:32:31;;;;;;;28.05;16.60;;;2.60;99.90;;;;;;5088844;28;20168;-76
2021/12/31 03:34:57;;;;;;;28.17;15.95;;;2.60;99.90;;;;;;5090266;28;20156;-76
2021/12/31 03:37:23;;;;;;;18.63;14.07;;;2.50;99.90;;;;;;5090037;28;20266;-76
2021/12/31 03:39:49;;;;;;;24.38;15.75;;;2.40;99.90;;;;;;5088741;28;20164;-77
2021/12/31 03:42:16;;;;;;;21.60;14.45;;;2.40;99.90;;;;;;5089910;28;20214;-77
2021/12/31 03:44:43;;;;;;;18.13;11.75;;;2.40;99.90;;;;;;5089892;28;20152;-77
2021/12/31 03:47:08;;;;;;;25.65;14.88;;;2.40;99.90;;;;;;5088467;28;20168;-77
2021/12/31 03:49:34;;;;;;;21.70;13.73;;;2.50;99.90;;;;;;5089828;28;20167;-77
2021/12/31 03:52:01;;;;;;;25.77;13.18;;;2.60;99.90;;;;;;5088725;28;20288;-77
2021/12/31 03:54:26;;;;;;;24.50;14.27;;;2.60;99.90;;;;;;5088431;28;20164;-78
2021/12/31 03:56:52;;;;;;;20.80;13.07;;;2.50;99.90;;;;;;5088437;28;20172;-78
2021/12/31 03:59:18;;;;;;;20.88;13.60;;;2.40;99.90;;;;;;5088138;28;20716;-78
2021/12/31 04:01:44;;;;;;;23.48;14.30;;;2.30;99.90;;;;;;5089637;28;20191;-77
2021/12/31 04:04:10;;;;;;;22.40;13.15;;;2.20;99.90;;;;;;5089634;28;20171;-77
2021/12/31 04:06:36;;;;;;;21.30;13.88;;;2.20;99.90;;;;;;5089641;28;20182;-77
2021/12/31 04:09:03;;;;;;;22.10;13.63;;;2.10;99.90;;;;;;5089477;28;20171;-77
2021/12/31 04:11:29;;;;;;;25.67;15.20;;;2.00;99.90;;;;;;5089273;28;20226;-77
2021/12/31 04:13:54;;;;;;;20.05;13.27;;;2.00;99.90;;;;;;5088306;28;20175;-79
2021/12/31 04:16:20;;;;;;;20.38;14.27;;;2.00;99.90;;;;;;5087479;28;20168;-76
2021/12/31 04:18:47;;;;;;;22.00;13.15;;;2.00;99.90;;;;;;5088526;28;20251;-77
2021/12/31 04:21:16;;;;;;;29.73;13.50;;;2.00;99.90;;;;;;5076734;28;20184;-77
2021/12/31 04:24:04;;;;;;;20.15;13.70;;;2.00;99.90;;;;;;5089133;28;20186;-77
2021/12/31 04:26:30;;;;;;;17.98;12.10;;;2.00;99.90;;;;;;5088091;28;20168;-76
2021/12/31 04:28:56;;;;;;;19.38;13.65;;;1.90;99.90;;;;;;5089454;28;20168;-76
2021/12/31 04:31:23;;;;;;;19.63;12.27;;;1.70;99.90;;;;;;5089439;28;20217;-78
2021/12/31 04:33:49;;;;;;;19.77;12.55;;;1.60;99.90;;;;;;5087703;28;20168;-77
2021/12/31 04:36:14;;;;;;;19.55;11.68;;;1.50;99.90;;;;;;5089368;28;20163;-76
2021/12/31 04:38:41;;;;;;;21.35;12.93;;;1.40;99.90;;;;;;5086824;28;20290;-77
2021/12/31 04:41:06;;;;;;;18.55;12.00;;;1.40;99.90;;;;;;5087694;28;20215;-77
2021/12/31 04:43:32;;;;;;;17.02;12.07;;;1.40;99.90;;;;;;5087741;28;20171;-77
2021/12/31 04:45:58;;;;;;;18.50;11.27;;;1.40;99.90;;;;;;5089132;28;20169;-77
2021/12/31 04:48:25;;;;;;;20.40;12.60;;;1.40;99.90;;;;;;5087785;28;20172;-77
2021/12/31 04:50:51;;;;;;;18.77;12.50;;;1.40;99.90;;;;;;5089015;28;20195;-77
2021/12/31 04:53:17;;;;;;;15.85;11.63;;;1.40;99.90;;;;;;5088966;28;20184;-76
2021/12/31 04:55:43;;;;;;;21.65;13.93;;;1.40;99.90;;;;;;5087709;28;20239;-76
2021/12/31 04:58:08;;;;;;;20.98;13.75;;;1.40;99.90;;;;;;5088866;28;20223;-77
2021/12/31 05:00:35;;;;;;;22.60;14.02;;;1.50;99.90;;;;;;5087570;28;20203;-77
2021/12/31 05:03:11;;;;;;;19.27;13.68;;;1.60;99.90;;;;;;5088995;28;20220;-77
2021/12/31 05:05:37;;;;;;;20.55;13.88;;;1.50;99.90;;;;;;5087625;28;20183;-76
2021/12/31 05:08:04;;;;;;;22.70;12.88;;;1.50;99.90;;;;;;5088914;28;20156;-78
2021/12/31 05:10:32;;;;;;;20.08;12.77;;;1.50;99.90;;;;;;5088808;28;20196;-76
2021/12/31 05:13:03;;;;;;;23.17;14.50;;;1.40;99.90;;;;;;5088982;28;20207;-76
2021/12/31 05:15:33;;;;;;;20.02;12.60;;;1.50;99.90;;;;;;5087549;28;20198;-76
2021/12/31 05:17:59;;;;;;;21.55;13.70;;;1.40;99.90;;;;;;5088604;28;20198;-77
2021/12/31 05:20:26;;;;;;;22.45;13.23;;;1.50;99.90;;;;;;5076012;28;20193;-77
2021/12/31 05:22:53;;;;;;;21.83;13.90;;;1.40;99.90;;;;;;5088800;28;20153;-76
2021/12/31 05:25:21;;;;;;;20.58;13.50;;;1.30;99.90;;;;;;5087403;28;20175;-76
2021/12/31 05:27:47;;;;;;;23.95;14.80;;;1.30;99.90;;;;;;5088764;28;20192;-76
2021/12/31 05:30:13;;;;;;;25.30;14.25;;;1.20;99.90;;;;;;5087221;28;20175;-76
2021/12/31 05:32:39;;;;;;;18.30;13.13;;;1.10;99.90;;;;;;5088575;28;20164;-76
2021/12/31 05:35:05;;;;;;;21.27;11.80;;;1.00;99.90;;;;;;5088691;28;20183;-78
2021/12/31 05:37:31;;;;;;;15.70;11.25;;;1.00;99.90;;;;;;5088553;28;20160;-78
2021/12/31 05:39:57;;;;;;;21.70;12.20;;;0.90;99.90;;;;;;5088577;28;20157;-78
2021/12/31 05:42:23;;;;;;;23.33;13.45;;;0.90;99.90;;;;;;5088542;28;20211;-79
2021/12/31 05:44:49;;;;;;;19.17;12.73;;;0.90;99.90;;;;;;5088287;28;20172;-78
2021/12/31 05:47:15;;;;;;;19.02;12.75;;;1.00;99.90;;;;;;5092224;28;20171;-78
2021/12/31 05:49:41;;;;;;;27.17;13.15;;;1.00;99.90;;;;;;5092710;28;20164;-79
2021/12/31 05:52:08;;;;;;;24.08;15.43;;;0.90;99.90;;;;;;5090868;28;20192;-77
2021/12/31 05:54:34;;;;;;;19.23;14.27;;;0.80;99.90;;;;;;5091009;28;20183;-77
2021/12/31 05:56:59;;;;;;;22.88;13.15;;;1.00;99.90;;;;;;5092083;28;20640;-78
2021/12/31 05:59:25;;;;;;;19.52;13.35;;;0.90;99.90;;;;;;5091959;28;20227;-77
2021/12/31 06:01:51;;;;;;;20.17;12.98;;;1.10;99.90;;;;;;5091977;28;20187;-77
2021/12/31 06:04:18;;;;;;;20.13;13.45;;;1.20;99.90;;;;;;5092028;28;20156;-76
2021/12/31 06:06:44;;;;;;;20.42;12.18;;;1.10;99.90;;;;;;5091994;28;20188;-76
2021/12/31 06:09:14;;;;;;;21.35;12.68;;;1.10;99.90;;;;;;5091933;28;20160;-76
2021/12/31 06:11:41;;;;;;;21.27;12.38;;;1.00;99.90;;;;;;5091901;28;20188;-76
2021/12/31 06:14:09;;;;;;;21.75;12.48;;;1.00;99.90;;;;;;5091618;28;20159;-77
2021/12/31 06:16:44;;;;;;;29.25;15.57;;;1.10;99.90;;;;;;5090623;28;20183;-76
2021/12/31 06:19:12;;;;;;;18.60;12.60;;;1.30;99.90;;;;;;5088828;28;20197;-76
2021/12/31 06:21:39;;;;;;;21.40;13.35;;;1.10;99.90;;;;;;5070338;28;20692;-77
2021/12/31 06:24:06;;;;;;;21.38;12.82;;;1.10;99.90;;;;;;5071677;28;20298;-79
2021/12/31 06:26:32;;;;;;;17.55;11.18;;;1.10;99.90;;;;;;5071575;28;20634;-78
2021/12/31 06:28:58;;;;;;;18.50;11.65;;;1.00;99.90;;;;;;5071600;28;20260;-79
2021/12/31 06:31:25;;;;;;;21.13;13.18;;;0.90;99.90;;;;;;5070134;28;20196;-80
2021/12/31 06:33:51;;;;;;;19.30;12.18;;;0.90;99.90;;;;;;5071514;28;20153;-77
2021/12/31 06:36:19;;;;;;;17.40;11.73;;;0.80;99.90;;;;;;5070131;28;20207;-76
2021/12/31 06:38:45;;;;;;;16.92;11.27;;;0.80;99.90;;;;;;5070065;28;20564;-76
2021/12/31 06:41:11;;;;;;;23.23;11.93;;;0.80;99.90;;;;;;5069946;28;20188;-76
2021/12/31 06:43:37;;;;;;;19.63;12.05;;;0.80;99.90;;;;;;5071171;28;20164;-77
2021/12/31 06:46:03;;;;;;;20.67;11.70;;;0.80;99.90;;;;;;5071350;28;20168;-77
2021/12/31 06:48:29;;;;;;;19.30;12.45;;;0.90;99.90;;;;;;5071138;28;20161;-76
2021/12/31 06:50:55;;;;;;;19.13;11.82;;;0.90;99.90;;;;;;5071053;28;20227;-77
2021/12/31 06:53:20;;;;;;;21.77;12.95;;;0.90;99.90;;;;;;5070949;28;20161;-76
2021/12/31 06:55:46;;;;;;;23.65;12.23;;;0.80;99.90;;;;;;5070925;28;20187;-77
2021/12/31 06:58:12;;;;;;;18.30;10.90;;;0.90;99.90;;;;;;5070676;28;20220;-76
2021/12/31 07:00:38;;;;;;;19.17;13.43;;;0.80;99.90;;;;;;5069588;28;20195;-76
2021/12/31 07:03:05;;;;;;;16.80;11.98;;;0.90;99.90;;;;;;5069522;28;20157;-77
2021/12/31 07:05:31;;;;;;;17.42;12.02;;;1.10;99.90;;;;;;5086274;28;20185;-77
2021/12/31 07:07:57;;;;;;;17.52;10.63;;;1.30;99.90;;;;;;5070844;28;20157;-76
2021/12/31 07:10:23;;;;;;;21.65;13.50;;;1.50;99.90;;;;;;5085433;28;20200;-76
2021/12/31 07:12:49;;;;;;;18.52;13.15;;;1.50;99.90;;;;;;5090699;28;20202;-76
2021/12/31 07:15:15;;;;;;;20.00;12.43;;;1.60;99.90;;;;;;5089353;28;20171;-77
2021/12/31 07:17:41;;;;;;;16.75;11.80;;;1.60;99.90;;;;;;5090555;28;20255;-76
2021/12/31 07:20:07;;;;;;;18.95;12.10;;;1.60;99.90;;;;;;5080882;28;20167;-76
2021/12/31 07:22:34;;;;;;;16.48;10.25;;;1.80;99.90;;;;;;5072022;28;20228;-76
2021/12/31 07:25:00;;;;;;;11.70;8.50;;;1.90;99.90;;;;;;5069775;28;20184;-76
2021/12/31 07:27:26;;;;;;;16.75;9.30;;;2.30;99.90;;;;;;5070467;28;20169;-76
2021/12/31 07:29:51;;;;;;;15.20;9.93;;;2.60;99.90;;;;;;5069994;28;20609;-77
2021/12/31 07:32:17;;;;;;;11.95;9.25;;;2.70;99.90;;;;;;5070105;28;20192;-77
2021/12/31 07:34:43;;;;;;;16.73;9.18;;;2.70;99.90;;;;;;5070335;28;20153;-76
2021/12/31 07:37:09;;;;;;;13.82;8.93;;;2.80;99.90;;;;;;5070076;28;20168;-76
2021/12/31 07:39:36;;;;;;;13.18;8.35;;;3.00;99.90;;;;;;5068480;28;20271;-76
2021/12/31 07:42:02;;;;;;;13.57;7.80;;;3.20;99.90;;;;;;5069964;28;20185;-76
2021/12/31 07:44:28;;;;;;;10.02;7.18;;;3.20;99.90;;;;;;5070091;28;20160;-76
2021/12/31 07:46:53;;;;;;;11.18;7.47;;;3.30;99.90;;;;;;5069977;28;20165;-77
2021/12/31 07:49:19;;;;;;;10.45;6.97;;;3.60;99.90;;;;;;5069426;28;20171;-76
2021/12/31 07:51:45;;;;;;;13.23;7.20;;;3.80;99.90;;;;;;5068307;28;20200;-75
2021/12/31 07:54:11;;;;;;;10.15;6.93;;;3.60;99.90;;;;;;5069879;28;20632;-75
2021/12/31 07:56:37;;;;;;;8.70;5.95;;;3.70;99.90;;;;;;5067241;28;20168;-75
2021/12/31 07:59:03;;;;;;;11.55;6.93;;;3.80;99.90;;;;;;5069559;28;20258;-75
2021/12/31 08:01:29;;;;;;;10.75;6.25;;;4.00;99.90;;;;;;5068361;28;20173;-76
2021/12/31 08:03:55;;;;;;;10.68;7.20;;;4.30;99.90;;;;;;5069460;28;20157;-76
2021/12/31 08:06:21;;;;;;;21.85;9.95;;;5.00;99.90;;;;;;5069714;28;20216;-76
2021/12/31 08:08:46;;;;;;;18.45;10.95;;;6.50;99.90;;;;;;5070414;28;20196;-76
2021/12/31 08:11:12;;;;;;;13.98;9.48;;;6.10;99.90;;;;;;5088398;28;20172;-76
2021/12/31 08:13:38;;;;;;;13.10;8.00;;;5.70;99.90;;;;;;5089442;28;20156;-77
2021/12/31 08:16:04;;;;;;;15.57;9.60;;;5.80;99.90;;;;;;5089499;28;20159;-76
2021/12/31 08:18:30;;;;;;;27.50;15.63;;;6.60;99.90;;;;;;5087859;28;20203;-75
2021/12/31 08:20:56;;;;;;;18.00;13.52;;;9.00;99.90;;;;;;5076605;28;20168;-75
2021/12/31 08:23:22;;;;;;;21.70;14.18;;;11.30;99.90;;;;;;5089334;28;20206;-75
2021/12/31 08:25:48;;;;;;;20.17;12.18;;;12.10;99.90;;;;;;5089156;28;20160;-76
2021/12/31 08:28:14;;;;;;;22.40;12.57;;;12.50;99.90;;;;;;5089094;28;20249;-75
2021/12/31 08:30:40;;;;;;;14.27;10.15;;;14.30;99.90;;;;;;5087974;28;20176;-75
2021/12/31 08:33:06;;;;;;;16.58;8.73;;;15.00;99.90;;;;;;5089216;28;20195;-76
2021/12/31 08:35:32;;;;;;;10.57;7.38;;;15.80;99.90;;;;;;5089334;28;20184;-76
2021/12/31 08:37:58;;;;;;;6.68;5.85;;;16.20;99.90;;;;;;5088932;28;20261;-76
2021/12/31 08:40:24;;;;;;;7.35;4.97;;;16.50;99.90;;;;;;5088225;28;20245;-76
2021/12/31 08:42:50;;;;;;;5.47;4.07;;;15.90;99.90;;;;;;5087717;28;20167;-75
2021/12/31 08:45:16;;;;;;;6.50;4.70;;;15.30;99.90;;;;;;5089204;28;20171;-75
2021/12/31 08:47:42;;;;;;;8.77;5.57;;;14.90;99.90;;;;;;5087790;28;20195;-75
2021/12/31 08:50:08;;;;;;;11.35;5.80;;;15.00;99.90;;;;;;5089077;28;20160;-76
2021/12/31 08:52:34;;;;;;;9.82;5.18;;;15.20;99.90;;;;;;5087683;28;20166;-77
2021/12/31 08:55:00;;;;;;;10.93;5.55;;;15.50;99.90;;;;;;5088952;28;20172;-76
2021/12/31 08:57:25;;;;;;;9.27;5.20;;;15.70;99.90;;;;;;5088275;28;20191;-77
2021/12/31 08:59:51;;;;;;;9.43;5.60;;;15.70;99.90;;;;;;5088727;28;20229;-76
2021/12/31 09:02:18;;;;;;;10.02;4.78;;;15.70;99.90;;;;;;5089027;28;20155;-77
2021/12/31 09:04:43;;;;;;;6.60;4.85;;;15.80;99.90;;;;;;5088869;28;20163;-77
2021/12/31 09:07:09;;;;;;;7.35;6.10;;;15.60;99.90;;;;;;5087621;28;20200;-78
2021/12/31 09:09:35;;;;;;;10.27;6.25;;;15.40;99.90;;;;;;5087422;28;20171;-77
2021/12/31 09:12:01;;;;;;;12.43;8.82;;;15.80;99.90;;;;;;5087460;28;20231;-77
2021/12/31 09:14:27;;;;;;;12.25;9.57;;;15.80;99.90;;;;;;5088833;28;20160;-78
2021/12/31 09:16:53;;;;;;;13.57;9.63;;;16.10;99.90;;;;;;5088799;28;20267;-76
2021/12/31 09:19:19;;;;;;;14.95;10.52;;;16.30;99.90;;;;;;5084018;28;20192;-76
2021/12/31 09:21:45;;;;;;;16.13;11.85;;;16.10;99.90;;;;;;5071312;28;20184;-76
2021/12/31 09:24:11;;;;;;;19.00;10.93;;;16.00;99.90;;;;;;5072366;28;20188;-76
2021/12/31 09:26:37;;;;;;;13.35;10.75;;;16.00;99.90;;;;;;5072494;28;20149;-78
2021/12/31 09:29:03;;;;;;;18.92;12.95;;;15.60;99.90;;;;;;5071412;28;20164;-78
2021/12/31 09:31:29;;;;;;;17.10;12.18;;;16.10;99.90;;;;;;5072527;28;20157;-76
2021/12/31 09:33:55;;;;;;;16.90;11.30;;;16.30;99.90;;;;;;5071137;28;20183;-76
2021/12/31 09:36:21;;;;;;;17.48;11.85;;;16.40;99.90;;;;;;5072420;28;20161;-76
2021/12/31 09:38:47;;;;;;;17.48;11.65;;;16.10;99.90;;;;;;5071967;28;20208;-77
2021/12/31 09:41:13;;;;;;;17.02;12.15;;;16.40;99.90;;;;;;5072367;28;20610;-77
2021/12/31 09:43:39;;;;;;;16.42;12.20;;;16.40;99.90;;;;;;5072005;28;20153;-75
2021/12/31 09:46:05;;;;;;;14.63;9.80;;;17.10;99.90;;;;;;5072213;28;20212;-75
2021/12/31 09:48:31;;;;;;;15.95;11.23;;;17.10;99.90;;;;;;5072169;28;20192;-75
2021/12/31 09:50:57;;;;;;;16.88;10.57;;;17.40;99.90;;;;;;5070825;28;20219;-77
2021/12/31 09:53:26;;;;;;;14.50;10.57;;;17.60;99.90;;;;;;5070628;28;20197;-80
2021/12/31 09:55:56;;;;;;;15.80;10.13;;;17.40;99.90;;;;;;5071889;28;20157;-77
2021/12/31 09:58:24;;;;;;;11.25;9.52;;;17.10;99.90;;;;;;5070186;28;20295;-77
2021/12/31 10:00:53;;;;;;;16.17;9.65;;;16.90;99.90;;;;;;5071704;28;20169;-76
2021/12/31 10:03:21;;;;;;;9.10;5.57;;;16.70;99.90;;;;;;5070524;28;20165;-75
2021/12/31 10:05:51;;;;;;;8.90;6.70;;;16.70;99.90;;;;;;5071902;28;20212;-76
2021/12/31 10:08:20;;;;;;;9.30;7.18;;;16.30;99.90;;;;;;5070576;28;20200;-76
2021/12/31 10:11:12;;;;;;;11.68;8.15;;;15.90;99.90;;;;;;5089685;28;20277;-78
2021/12/31 10:13:42;;;;;;;9.35;6.43;;;16.00;99.90;;;;;;5090470;28;20172;-77
2021/12/31 10:16:27;;;;;;;11.05;5.80;;;16.10;99.90;;;;;;5090542;28;20239;-78
2021/12/31 10:19:11;;;;;;;8.20;6.10;;;16.20;99.90;;;;;;5089982;28;20207;-77
2021/12/31 10:21:41;;;;;;;8.10;5.90;;;16.40;99.90;;;;;;5070132;28;20169;-77
2021/12/31 10:24:33;;;;;;;8.93;6.82;;;16.30;99.90;;;;;;5071551;28;20160;-78
2021/12/31 10:27:14;;;;;;;9.60;6.45;;;16.70;99.90;;;;;;5069944;28;20192;-78
2021/12/31 10:30:00;;;;;;;7.10;5.35;;;17.30;99.90;;;;;;5070099;28;20172;-79
2021/12/31 10:32:31;;;;;;;8.57;5.95;;;17.00;99.90;;;;;;5070857;28;20213;-77
2021/12/31 10:35:11;;;;;;;7.80;5.80;;;17.10;99.90;;;;;;5071160;28;20175;-79
2021/12/31 10:37:45;;;;;;;7.85;5.85;;;17.20;99.90;;;;;;5070330;28;20204;-77
2021/12/31 10:40:24;;;;;;;7.22;5.80;;;17.60;99.90;;;;;;5100130;28;20170;-75
2021/12/31 10:43:10;;;;;;;8.98;5.78;;;17.30;99.90;;;;;;5111548;28;20152;-77
2021/12/31 10:45:38;;;;;;;10.52;6.57;;;17.00;99.90;;;;;;5075112;28;20187;-77
2021/12/31 10:48:07;;;;;;;6.97;5.82;;;17.00;99.90;;;;;;5071083;28;20216;-77
2021/12/31 10:50:33;;;;;;;6.97;5.78;;;17.40;99.90;;;;;;5071035;28;20172;-76
2021/12/31 10:55:30;;;;;;;8.70;5.43;;;17.00;99.90;;;;;;5071314;28;20165;-81
2021/12/31 10:58:04;;;;;;;9.95;5.63;;;17.20;99.90;;;;;;5070444;28;20228;-80
2021/12/31 11:00:34;;;;;;;5.82;4.78;;;16.80;99.90;;;;;;5069551;28;20168;-79
2021/12/31 11:03:01;;;;;;;8.95;5.20;;;16.60;99.90;;;;;;5069498;28;20169;-80
2021/12/31 11:05:28;;;;;;;8.35;4.95;;;16.90;99.90;;;;;;5069659;28;20232;-79
2021/12/31 11:07:59;;;;;;;9.20;5.47;;;17.40;99.90;;;;;;5070656;28;20193;-79
2021/12/31 11:10:27;;;;;;;7.32;5.20;;;17.60;99.90;;;;;;5085796;28;20182;-79
2021/12/31 11:12:54;;;;;;;7.50;4.93;;;18.00;99.90;;;;;;5090494;28;20240;-79
2021/12/31 11:15:20;;;;;;;6.47;4.72;;;18.10;99.90;;;;;;5090572;28;20203;-79
2021/12/31 11:17:52;;;;;;;8.05;5.45;;;18.70;99.90;;;;;;5089007;28;20180;-78
2021/12/31 11:20:23;;;;;;;6.72;4.90;;;18.90;99.90;;;;;;5078466;28;20243;-79
2021/12/31 11:22:49;;;;;;;10.57;5.00;;;18.80;99.90;;;;;;5070526;28;20159;-79
2021/12/31 11:25:24;;;;;;;8.10;4.90;;;19.40;99.90;;;;;;5069036;28;20242;-79
2021/12/31 11:27:52;;;;;;;6.70;5.18;;;20.00;99.90;;;;;;5070409;28;20149;-79
2021/12/31 11:30:28;;;;;;;7.95;6.28;;;20.10;99.90;;;;;;5069169;28;20168;-79
2021/12/31 11:32:55;;;;;;;8.20;5.10;;;20.00;99.90;;;;;;5069035;28;20179;-79
2021/12/31 11:35:36;;;;;;;10.38;5.32;;;20.00;99.90;;;;;;5070069;28;20195;-78
2021/12/31 11:38:12;;;;;;;7.10;5.38;;;20.00;99.90;;;;;;5068655;28;20202;-78
2021/12/31 11:40:40;;;;;;;13.15;6.70;;;19.90;99.90;;;;;;5070137;28;20159;-79
2021/12/31 11:43:17;;;;;;;14.80;6.45;;;19.90;99.90;;;;;;5069288;28;20160;-80
2021/12/31 11:45:43;;;;;;;9.40;6.13;;;19.40;99.90;;;;;;5068716;28;20274;-80
2021/12/31 11:48:43;;;;;;;12.25;6.07;;;19.10;99.90;;;;;;5069902;28;20164;-79
2021/12/31 11:51:13;;;;;;;14.85;7.22;;;19.20;99.90;;;;;;5068446;28;20180;-79
2021/12/31 11:53:57;;;;;;;14.23;6.60;;;19.60;99.90;;;;;;5069894;28;20195;-80
2021/12/31 11:56:39;;;;;;;10.80;7.03;;;19.40;99.90;;;;;;5068371;28;20494;-79
2021/12/31 11:59:09;;;;;;;13.48;6.80;;;18.80;99.90;;;;;;5069501;28;20648;-78
2021/12/31 12:01:38;;;;;;;18.20;6.28;;;19.10;99.90;;;;;;5069579;28;20179;-80
2021/12/31 12:04:22;;;;;;;13.15;6.15;;;18.70;99.90;;;;;;5069660;28;20213;-80
2021/12/31 12:06:56;;;;;;;10.32;6.20;;;19.30;99.90;;;;;;5069493;28;20175;-81
2021/12/31 12:09:44;;;;;;;8.73;5.50;;;19.80;99.90;;;;;;5075783;28;20171;-79
2021/12/31 12:12:15;;;;;;;11.93;6.68;;;20.00;99.90;;;;;;5089595;28;20171;-79
2021/12/31 12:14:49;;;;;;;12.73;5.63;;;19.80;99.90;;;;;;5089514;28;20183;-79
2021/12/31 12:17:18;;;;;;;14.48;6.65;;;19.30;99.90;;;;;;5089615;28;20151;-79
2021/12/31 12:19:49;;;;;;;13.00;6.45;;;19.40;99.90;;;;;;5081981;28;20194;-79
2021/12/31 12:22:27;;;;;;;13.13;6.25;;;19.30;99.90;;;;;;5069217;28;20184;-79
2021/12/31 12:24:55;;;;;;;11.68;6.10;;;19.70;99.90;;;;;;5069251;28;20183;-80
2021/12/31 12:27:23;;;;;;;12.13;6.32;;;19.70;99.90;;;;;;5068174;28;20180;-79
2021/12/31 12:29:51;;;;;;;10.20;7.07;;;19.50;99.90;;;;;;5069353;28;20230;-78
2021/12/31 12:32:29;;;;;;;14.48;6.22;;;19.90;99.90;;;;;;5069248;28;20167;-79
2021/12/31 12:34:55;;;;;;;10.48;6.07;;;20.00;99.90;;;;;;5067851;28;20200;-79
2021/12/31 12:37:28;;;;;;;9.40;6.72;;;19.10;99.90;;;;;;5069132;28;20195;-80
2021/12/31 12:40:01;;;;;;;15.07;6.97;;;18.20;99.90;;;;;;5069141;28;20259;-81
2021/12/31 12:42:27;;;;;;;17.52;7.22;;;16.90;99.90;;;;;;5067698;28;20171;-79
2021/12/31 12:45:01;;;;;;;14.15;7.15;;;16.00;99.90;;;;;;5067531;28;20192;-78
2021/12/31 12:47:27;;;;;;;12.95;6.65;;;15.30;99.90;;;;;;5067750;28;20161;-76
2021/12/31 12:50:01;;;;;;;11.23;6.22;;;14.90;99.90;;;;;;5069037;28;20163;-76